sensor_id;sensor_type;location;lat;lon;timestamp;P1;durP1;ratioP1;P2;durP2;ratioP2
68432;SDS011;55412;51.350;17.056;2023-04-28T00:02:06;10.67;;;4.57;;
68432;SDS011;55412;51.350;17.056;2023-04-28T00:04:32;14.10;;;4.45;;
68432;SDS011;55412;51.350;17.056;2023-04-28T00:06:58;10.20;;;4.25;;
68432;SDS011;55412;51.350;17.056;2023-04-28T00:09:24;13.32;;;4.53;;
68432;SDS011;55412;51.350;17.056;2023-04-28T00:11:50;16.90;;;5.73;;
68432;SDS011;55412;51.350;17.056;2023-04-28T00:14:16;21.23;;;5.20;;
68432;SDS011;55412;51.350;17.056;2023-04-28T00:16:42;13.30;;;4.60;;
68432;SDS011;55412;51.350;17.056;2023-04-28T00:19:08;10.63;;;4.10;;
68432;SDS011;55412;51.350;17.056;2023-04-28T00:21:34;9.43;;;4.35;;
68432;SDS011;55412;51.350;17.056;2023-04-28T00:24:00;12.53;;;4.30;;
68432;SDS011;55412;51.350;17.056;2023-04-28T00:26:26;11.50;;;4.88;;
68432;SDS011;55412;51.350;17.056;2023-04-28T00:28:52;14.07;;;4.40;;
68432;SDS011;55412;51.350;17.056;2023-04-28T00:31:18;10.95;;;4.10;;
68432;SDS011;55412;51.350;17.056;2023-04-28T00:33:44;9.73;;;3.75;;
68432;SDS011;55412;51.350;17.056;2023-04-28T00:36:10;11.73;;;4.50;;
68432;SDS011;55412;51.350;17.056;2023-04-28T00:38:36;13.68;;;4.32;;
68432;SDS011;55412;51.350;17.056;2023-04-28T00:41:02;11.35;;;4.70;;
68432;SDS011;55412;51.350;17.056;2023-04-28T00:43:28;12.90;;;5.10;;
68432;SDS011;55412;51.350;17.056;2023-04-28T00:45:54;10.63;;;4.37;;
68432;SDS011;55412;51.350;17.056;2023-04-28T00:48:20;17.43;;;5.10;;
68432;SDS011;55412;51.350;17.056;2023-04-28T00:50:48;11.48;;;4.72;;
68432;SDS011;55412;51.350;17.056;2023-04-28T00:53:14;10.90;;;4.07;;
68432;SDS011;55412;51.350;17.056;2023-04-28T00:55:40;11.07;;;4.28;;
68432;SDS011;55412;51.350;17.056;2023-04-28T00:58:06;11.27;;;4.90;;
68432;SDS011;55412;51.350;17.056;2023-04-28T01:00:33;12.20;;;4.53;;
68432;SDS011;55412;51.350;17.056;2023-04-28T01:02:59;14.40;;;5.18;;
68432;SDS011;55412;51.350;17.056;2023-04-28T01:05:26;9.73;;;4.43;;
68432;SDS011;55412;51.350;17.056;2023-04-28T01:07:53;12.55;;;5.07;;
68432;SDS011;55412;51.350;17.056;2023-04-28T01:10:20;11.10;;;4.60;;
68432;SDS011;55412;51.350;17.056;2023-04-28T01:12:46;11.13;;;3.70;;
68432;SDS011;55412;51.350;17.056;2023-04-28T01:15:16;13.73;;;5.05;;
68432;SDS011;55412;51.350;17.056;2023-04-28T01:17:44;9.48;;;4.40;;
68432;SDS011;55412;51.350;17.056;2023-04-28T01:20:11;12.35;;;4.40;;
68432;SDS011;55412;51.350;17.056;2023-04-28T01:22:38;11.80;;;4.75;;
68432;SDS011;55412;51.350;17.056;2023-04-28T01:25:05;12.33;;;5.20;;
68432;SDS011;55412;51.350;17.056;2023-04-28T01:27:33;12.40;;;5.40;;
68432;SDS011;55412;51.350;17.056;2023-04-28T01:29:59;12.73;;;4.30;;
68432;SDS011;55412;51.350;17.056;2023-04-28T01:32:26;13.82;;;4.85;;
68432;SDS011;55412;51.350;17.056;2023-04-28T01:34:51;10.73;;;4.17;;
68432;SDS011;55412;51.350;17.056;2023-04-28T01:37:18;11.38;;;4.43;;
68432;SDS011;55412;51.350;17.056;2023-04-28T01:39:43;13.27;;;5.28;;
68432;SDS011;55412;51.350;17.056;2023-04-28T01:42:09;11.13;;;4.95;;
68432;SDS011;55412;51.350;17.056;2023-04-28T01:44:35;13.60;;;5.82;;
68432;SDS011;55412;51.350;17.056;2023-04-28T01:47:01;14.43;;;5.47;;
68432;SDS011;55412;51.350;17.056;2023-04-28T01:49:27;15.85;;;5.53;;
68432;SDS011;55412;51.350;17.056;2023-04-28T01:51:53;16.27;;;6.05;;
68432;SDS011;55412;51.350;17.056;2023-04-28T01:54:19;13.25;;;5.65;;
68432;SDS011;55412;51.350;17.056;2023-04-28T01:56:45;17.07;;;6.10;;
68432;SDS011;55412;51.350;17.056;2023-04-28T01:59:11;15.20;;;6.40;;
68432;SDS011;55412;51.350;17.056;2023-04-28T02:01:37;14.15;;;5.68;;
68432;SDS011;55412;51.350;17.056;2023-04-28T02:04:03;15.43;;;5.20;;
68432;SDS011;55412;51.350;17.056;2023-04-28T02:06:29;11.63;;;5.13;;
68432;SDS011;55412;51.350;17.056;2023-04-28T02:08:55;11.67;;;4.87;;
68432;SDS011;55412;51.350;17.056;2023-04-28T02:11:21;11.57;;;4.40;;
68432;SDS011;55412;51.350;17.056;2023-04-28T02:13:47;12.13;;;4.35;;
68432;SDS011;55412;51.350;17.056;2023-04-28T02:16:14;14.52;;;4.95;;
68432;SDS011;55412;51.350;17.056;2023-04-28T02:18:40;11.77;;;4.78;;
68432;SDS011;55412;51.350;17.056;2023-04-28T02:21:10;14.53;;;5.60;;
68432;SDS011;55412;51.350;17.056;2023-04-28T02:23:37;12.07;;;4.80;;
68432;SDS011;55412;51.350;17.056;2023-04-28T02:26:04;12.85;;;5.25;;
68432;SDS011;55412;51.350;17.056;2023-04-28T02:28:30;11.50;;;5.13;;
68432;SDS011;55412;51.350;17.056;2023-04-28T02:31:06;13.55;;;5.47;;
68432;SDS011;55412;51.350;17.056;2023-04-28T02:33:34;13.50;;;6.03;;
68432;SDS011;55412;51.350;17.056;2023-04-28T02:36:01;11.35;;;5.03;;
68432;SDS011;55412;51.350;17.056;2023-04-28T02:38:29;11.15;;;4.22;;
68432;SDS011;55412;51.350;17.056;2023-04-28T02:40:59;14.18;;;5.20;;
68432;SDS011;55412;51.350;17.056;2023-04-28T02:43:27;9.15;;;3.22;;
68432;SDS011;55412;51.350;17.056;2023-04-28T02:45:53;9.80;;;4.40;;
68432;SDS011;55412;51.350;17.056;2023-04-28T02:48:19;8.10;;;3.10;;
68432;SDS011;55412;51.350;17.056;2023-04-28T02:50:46;10.13;;;3.67;;
68432;SDS011;55412;51.350;17.056;2023-04-28T02:53:12;9.80;;;4.25;;
68432;SDS011;55412;51.350;17.056;2023-04-28T02:55:38;15.32;;;5.05;;
68432;SDS011;55412;51.350;17.056;2023-04-28T02:58:04;21.83;;;5.93;;
68432;SDS011;55412;51.350;17.056;2023-04-28T03:00:30;17.90;;;5.82;;
68432;SDS011;55412;51.350;17.056;2023-04-28T03:02:56;16.08;;;5.75;;
68432;SDS011;55412;51.350;17.056;2023-04-28T03:05:22;12.93;;;5.65;;
68432;SDS011;55412;51.350;17.056;2023-04-28T03:07:48;18.85;;;5.88;;
68432;SDS011;55412;51.350;17.056;2023-04-28T03:10:14;19.53;;;7.30;;
68432;SDS011;55412;51.350;17.056;2023-04-28T03:12:40;18.90;;;8.38;;
68432;SDS011;55412;51.350;17.056;2023-04-28T03:15:08;24.27;;;9.98;;
68432;SDS011;55412;51.350;17.056;2023-04-28T03:17:34;20.35;;;8.77;;
68432;SDS011;55412;51.350;17.056;2023-04-28T03:20:03;18.67;;;8.20;;
68432;SDS011;55412;51.350;17.056;2023-04-28T03:22:30;14.97;;;6.60;;
68432;SDS011;55412;51.350;17.056;2023-04-28T03:24:56;17.77;;;7.10;;
68432;SDS011;55412;51.350;17.056;2023-04-28T03:27:22;14.27;;;6.22;;
68432;SDS011;55412;51.350;17.056;2023-04-28T03:29:48;16.45;;;6.07;;
68432;SDS011;55412;51.350;17.056;2023-04-28T03:32:14;16.00;;;6.73;;
68432;SDS011;55412;51.350;17.056;2023-04-28T03:34:40;14.65;;;5.30;;
68432;SDS011;55412;51.350;17.056;2023-04-28T03:37:06;15.10;;;5.85;;
68432;SDS011;55412;51.350;17.056;2023-04-28T03:39:32;11.57;;;4.72;;
68432;SDS011;55412;51.350;17.056;2023-04-28T03:41:58;10.77;;;4.88;;
68432;SDS011;55412;51.350;17.056;2023-04-28T03:44:25;14.50;;;5.53;;
68432;SDS011;55412;51.350;17.056;2023-04-28T03:46:51;12.15;;;4.32;;
68432;SDS011;55412;51.350;17.056;2023-04-28T03:49:17;13.95;;;4.53;;
68432;SDS011;55412;51.350;17.056;2023-04-28T03:51:43;10.40;;;4.70;;
68432;SDS011;55412;51.350;17.056;2023-04-28T03:54:09;11.43;;;4.68;;
68432;SDS011;55412;51.350;17.056;2023-04-28T03:56:35;14.50;;;4.97;;
68432;SDS011;55412;51.350;17.056;2023-04-28T03:59:01;11.13;;;4.55;;
68432;SDS011;55412;51.350;17.056;2023-04-28T04:01:27;11.07;;;4.60;;
68432;SDS011;55412;51.350;17.056;2023-04-28T04:03:53;13.13;;;5.30;;
68432;SDS011;55412;51.350;17.056;2023-04-28T04:06:19;13.33;;;4.20;;
68432;SDS011;55412;51.350;17.056;2023-04-28T04:08:46;13.43;;;4.85;;
68432;SDS011;55412;51.350;17.056;2023-04-28T04:11:12;11.63;;;4.40;;
68432;SDS011;55412;51.350;17.056;2023-04-28T04:13:38;10.07;;;4.40;;
68432;SDS011;55412;51.350;17.056;2023-04-28T04:16:04;12.77;;;4.47;;
68432;SDS011;55412;51.350;17.056;2023-04-28T04:18:31;10.57;;;4.47;;
68432;SDS011;55412;51.350;17.056;2023-04-28T04:20:57;14.40;;;5.30;;
68432;SDS011;55412;51.350;17.056;2023-04-28T04:23:23;12.43;;;4.97;;
68432;SDS011;55412;51.350;17.056;2023-04-28T04:25:49;13.65;;;4.65;;
68432;SDS011;55412;51.350;17.056;2023-04-28T04:28:15;16.65;;;5.47;;
68432;SDS011;55412;51.350;17.056;2023-04-28T04:30:41;16.80;;;5.57;;
68432;SDS011;55412;51.350;17.056;2023-04-28T04:33:07;19.85;;;6.03;;
68432;SDS011;55412;51.350;17.056;2023-04-28T04:35:33;14.93;;;5.32;;
68432;SDS011;55412;51.350;17.056;2023-04-28T04:37:59;22.10;;;5.55;;
68432;SDS011;55412;51.350;17.056;2023-04-28T04:40:27;15.33;;;5.40;;
68432;SDS011;55412;51.350;17.056;2023-04-28T04:42:53;13.45;;;6.25;;
68432;SDS011;55412;51.350;17.056;2023-04-28T04:45:19;19.05;;;6.07;;
68432;SDS011;55412;51.350;17.056;2023-04-28T04:47:45;14.18;;;6.10;;
68432;SDS011;55412;51.350;17.056;2023-04-28T04:50:12;15.85;;;6.10;;
68432;SDS011;55412;51.350;17.056;2023-04-28T04:52:39;14.77;;;5.93;;
68432;SDS011;55412;51.350;17.056;2023-04-28T04:55:05;14.45;;;6.18;;
68432;SDS011;55412;51.350;17.056;2023-04-28T04:57:32;21.55;;;7.32;;
68432;SDS011;55412;51.350;17.056;2023-04-28T04:59:58;16.27;;;6.18;;
68432;SDS011;55412;51.350;17.056;2023-04-28T05:02:24;14.73;;;6.05;;
68432;SDS011;55412;51.350;17.056;2023-04-28T05:04:50;18.97;;;5.87;;
68432;SDS011;55412;51.350;17.056;2023-04-28T05:07:16;13.55;;;5.63;;
68432;SDS011;55412;51.350;17.056;2023-04-28T05:09:42;11.65;;;5.53;;
68432;SDS011;55412;51.350;17.056;2023-04-28T05:12:08;15.65;;;5.60;;
68432;SDS011;55412;51.350;17.056;2023-04-28T05:14:34;12.23;;;4.93;;
68432;SDS011;55412;51.350;17.056;2023-04-28T05:17:00;12.67;;;5.03;;
68432;SDS011;55412;51.350;17.056;2023-04-28T05:19:26;11.23;;;4.78;;
68432;SDS011;55412;51.350;17.056;2023-04-28T05:21:52;13.77;;;5.72;;
68432;SDS011;55412;51.350;17.056;2023-04-28T05:24:22;12.88;;;5.13;;
68432;SDS011;55412;51.350;17.056;2023-04-28T05:26:49;11.85;;;5.43;;
68432;SDS011;55412;51.350;17.056;2023-04-28T05:29:16;16.57;;;6.03;;
68432;SDS011;55412;51.350;17.056;2023-04-28T05:31:42;17.38;;;6.35;;
68432;SDS011;55412;51.350;17.056;2023-04-28T05:34:08;14.05;;;5.65;;
68432;SDS011;55412;51.350;17.056;2023-04-28T05:36:34;10.90;;;5.20;;
68432;SDS011;55412;51.350;17.056;2023-04-28T05:39:00;12.95;;;5.57;;
68432;SDS011;55412;51.350;17.056;2023-04-28T05:41:26;12.13;;;5.27;;
68432;SDS011;55412;51.350;17.056;2023-04-28T05:43:52;12.75;;;5.40;;
68432;SDS011;55412;51.350;17.056;2023-04-28T05:46:18;13.45;;;5.75;;
68432;SDS011;55412;51.350;17.056;2023-04-28T05:48:44;13.90;;;5.97;;
68432;SDS011;55412;51.350;17.056;2023-04-28T05:51:11;15.53;;;5.73;;
68432;SDS011;55412;51.350;17.056;2023-04-28T05:53:37;12.65;;;4.97;;
68432;SDS011;55412;51.350;17.056;2023-04-28T05:56:03;15.25;;;6.00;;
68432;SDS011;55412;51.350;17.056;2023-04-28T05:58:29;15.90;;;6.47;;
68432;SDS011;55412;51.350;17.056;2023-04-28T06:00:55;12.80;;;6.07;;
68432;SDS011;55412;51.350;17.056;2023-04-28T06:03:22;9.80;;;4.57;;
68432;SDS011;55412;51.350;17.056;2023-04-28T06:05:48;14.30;;;5.38;;
68432;SDS011;55412;51.350;17.056;2023-04-28T06:08:14;14.02;;;6.13;;
68432;SDS011;55412;51.350;17.056;2023-04-28T06:10:40;17.08;;;6.35;;
68432;SDS011;55412;51.350;17.056;2023-04-28T06:13:06;13.52;;;6.20;;
68432;SDS011;55412;51.350;17.056;2023-04-28T06:15:33;12.40;;;4.07;;
68432;SDS011;55412;51.350;17.056;2023-04-28T06:17:59;15.57;;;5.40;;
68432;SDS011;55412;51.350;17.056;2023-04-28T06:20:26;13.18;;;5.07;;
68432;SDS011;55412;51.350;17.056;2023-04-28T06:22:52;16.17;;;5.28;;
68432;SDS011;55412;51.350;17.056;2023-04-28T06:25:18;12.57;;;5.38;;
68432;SDS011;55412;51.350;17.056;2023-04-28T06:27:44;10.53;;;4.73;;
68432;SDS011;55412;51.350;17.056;2023-04-28T06:30:16;10.73;;;4.72;;
68432;SDS011;55412;51.350;17.056;2023-04-28T06:32:48;15.10;;;5.78;;
68432;SDS011;55412;51.350;17.056;2023-04-28T06:35:15;11.98;;;5.13;;
68432;SDS011;55412;51.350;17.056;2023-04-28T06:37:41;13.40;;;5.30;;
68432;SDS011;55412;51.350;17.056;2023-04-28T06:40:08;11.23;;;5.50;;
68432;SDS011;55412;51.350;17.056;2023-04-28T06:42:35;12.20;;;5.90;;
68432;SDS011;55412;51.350;17.056;2023-04-28T06:45:01;14.63;;;6.20;;
68432;SDS011;55412;51.350;17.056;2023-04-28T06:47:27;14.15;;;5.63;;
68432;SDS011;55412;51.350;17.056;2023-04-28T06:49:53;10.57;;;5.38;;
68432;SDS011;55412;51.350;17.056;2023-04-28T06:52:19;15.90;;;6.67;;
68432;SDS011;55412;51.350;17.056;2023-04-28T06:54:46;16.95;;;5.82;;
68432;SDS011;55412;51.350;17.056;2023-04-28T06:57:12;11.68;;;5.97;;
68432;SDS011;55412;51.350;17.056;2023-04-28T06:59:38;16.45;;;5.80;;
68432;SDS011;55412;51.350;17.056;2023-04-28T07:02:07;12.23;;;5.97;;
68432;SDS011;55412;51.350;17.056;2023-04-28T07:04:34;11.90;;;5.53;;
68432;SDS011;55412;51.350;17.056;2023-04-28T07:07:01;14.15;;;5.70;;
68432;SDS011;55412;51.350;17.056;2023-04-28T07:09:32;12.52;;;5.43;;
68432;SDS011;55412;51.350;17.056;2023-04-28T07:11:59;14.75;;;5.65;;
68432;SDS011;55412;51.350;17.056;2023-04-28T07:14:25;11.13;;;5.78;;
68432;SDS011;55412;51.350;17.056;2023-04-28T07:16:51;12.47;;;6.37;;
68432;SDS011;55412;51.350;17.056;2023-04-28T07:19:17;17.45;;;7.22;;
68432;SDS011;55412;51.350;17.056;2023-04-28T07:21:43;12.93;;;5.90;;
68432;SDS011;55412;51.350;17.056;2023-04-28T07:24:10;17.85;;;6.35;;
68432;SDS011;55412;51.350;17.056;2023-04-28T07:26:36;14.47;;;5.77;;
68432;SDS011;55412;51.350;17.056;2023-04-28T07:29:02;15.97;;;6.13;;
68432;SDS011;55412;51.350;17.056;2023-04-28T07:31:28;13.23;;;5.68;;
68432;SDS011;55412;51.350;17.056;2023-04-28T07:33:54;10.25;;;4.90;;
68432;SDS011;55412;51.350;17.056;2023-04-28T07:36:20;12.20;;;6.07;;
68432;SDS011;55412;51.350;17.056;2023-04-28T07:38:47;11.07;;;5.22;;
68432;SDS011;55412;51.350;17.056;2023-04-28T07:41:13;9.50;;;5.43;;
68432;SDS011;55412;51.350;17.056;2023-04-28T07:43:41;13.40;;;5.43;;
68432;SDS011;55412;51.350;17.056;2023-04-28T07:46:08;13.57;;;6.30;;
68432;SDS011;55412;51.350;17.056;2023-04-28T07:48:34;10.98;;;5.95;;
68432;SDS011;55412;51.350;17.056;2023-04-28T07:51:00;16.25;;;6.30;;
68432;SDS011;55412;51.350;17.056;2023-04-28T07:53:26;12.70;;;6.20;;
68432;SDS011;55412;51.350;17.056;2023-04-28T07:55:53;12.07;;;5.30;;
68432;SDS011;55412;51.350;17.056;2023-04-28T07:58:19;13.77;;;7.03;;
68432;SDS011;55412;51.350;17.056;2023-04-28T08:00:45;11.73;;;5.97;;
68432;SDS011;55412;51.350;17.056;2023-04-28T08:03:11;11.93;;;5.80;;
68432;SDS011;55412;51.350;17.056;2023-04-28T08:05:37;12.50;;;5.90;;
68432;SDS011;55412;51.350;17.056;2023-04-28T08:08:04;12.20;;;5.10;;
68432;SDS011;55412;51.350;17.056;2023-04-28T08:10:30;12.27;;;6.03;;
68432;SDS011;55412;51.350;17.056;2023-04-28T08:12:56;9.90;;;4.97;;
68432;SDS011;55412;51.350;17.056;2023-04-28T08:15:22;11.82;;;5.00;;
68432;SDS011;55412;51.350;17.056;2023-04-28T08:17:48;11.27;;;4.00;;
68432;SDS011;55412;51.350;17.056;2023-04-28T08:20:14;11.48;;;4.55;;
68432;SDS011;55412;51.350;17.056;2023-04-28T08:22:43;10.18;;;4.75;;
68432;SDS011;55412;51.350;17.056;2023-04-28T08:25:10;10.90;;;4.57;;
68432;SDS011;55412;51.350;17.056;2023-04-28T08:27:36;11.57;;;5.15;;
68432;SDS011;55412;51.350;17.056;2023-04-28T08:30:05;10.50;;;4.53;;
68432;SDS011;55412;51.350;17.056;2023-04-28T08:32:33;10.07;;;4.38;;
68432;SDS011;55412;51.350;17.056;2023-04-28T08:34:59;11.60;;;4.38;;
68432;SDS011;55412;51.350;17.056;2023-04-28T08:37:25;9.35;;;4.70;;
68432;SDS011;55412;51.350;17.056;2023-04-28T08:39:52;7.63;;;4.20;;
68432;SDS011;55412;51.350;17.056;2023-04-28T08:42:33;9.77;;;4.23;;
68432;SDS011;55412;51.350;17.056;2023-04-28T08:45:01;11.43;;;4.15;;
68432;SDS011;55412;51.350;17.056;2023-04-28T08:47:34;7.93;;;3.80;;
68432;SDS011;55412;51.350;17.056;2023-04-28T08:50:05;12.23;;;4.50;;
68432;SDS011;55412;51.350;17.056;2023-04-28T08:52:33;8.85;;;3.80;;
68432;SDS011;55412;51.350;17.056;2023-04-28T08:55:03;10.10;;;3.60;;
68432;SDS011;55412;51.350;17.056;2023-04-28T08:57:39;11.00;;;4.03;;
68432;SDS011;55412;51.350;17.056;2023-04-28T09:00:18;8.25;;;3.30;;
68432;SDS011;55412;51.350;17.056;2023-04-28T09:02:45;10.85;;;3.25;;
68432;SDS011;55412;51.350;17.056;2023-04-28T09:05:11;5.70;;;2.22;;
68432;SDS011;55412;51.350;17.056;2023-04-28T09:07:39;6.57;;;2.40;;
68432;SDS011;55412;51.350;17.056;2023-04-28T09:10:21;5.35;;;2.25;;
68432;SDS011;55412;51.350;17.056;2023-04-28T09:12:50;5.78;;;2.10;;
68432;SDS011;55412;51.350;17.056;2023-04-28T09:15:25;7.25;;;2.50;;
68432;SDS011;55412;51.350;17.056;2023-04-28T09:17:57;6.35;;;2.30;;
68432;SDS011;55412;51.350;17.056;2023-04-28T09:20:27;7.00;;;2.63;;
68432;SDS011;55412;51.350;17.056;2023-04-28T09:22:55;6.95;;;2.67;;
68432;SDS011;55412;51.350;17.056;2023-04-28T09:25:58;7.75;;;2.78;;
68432;SDS011;55412;51.350;17.056;2023-04-28T09:28:32;8.52;;;2.45;;
68432;SDS011;55412;51.350;17.056;2023-04-28T09:31:00;9.35;;;2.70;;
68432;SDS011;55412;51.350;17.056;2023-04-28T09:33:26;9.83;;;3.47;;
68432;SDS011;55412;51.350;17.056;2023-04-28T09:35:52;9.68;;;3.28;;
68432;SDS011;55412;51.350;17.056;2023-04-28T09:38:20;8.57;;;3.10;;
68432;SDS011;55412;51.350;17.056;2023-04-28T09:40:51;7.80;;;3.33;;
68432;SDS011;55412;51.350;17.056;2023-04-28T09:43:34;6.78;;;2.78;;
68432;SDS011;55412;51.350;17.056;2023-04-28T09:46:01;6.93;;;3.17;;
68432;SDS011;55412;51.350;17.056;2023-04-28T09:48:33;9.45;;;3.42;;
68432;SDS011;55412;51.350;17.056;2023-04-28T09:51:03;9.07;;;3.47;;
68432;SDS011;55412;51.350;17.056;2023-04-28T09:53:31;10.50;;;3.30;;
68432;SDS011;55412;51.350;17.056;2023-04-28T09:56:00;8.73;;;3.80;;
68432;SDS011;55412;51.350;17.056;2023-04-28T09:58:29;6.80;;;3.53;;
68432;SDS011;55412;51.350;17.056;2023-04-28T10:00:57;9.55;;;3.75;;
68432;SDS011;55412;51.350;17.056;2023-04-28T10:03:25;10.27;;;3.80;;
68432;SDS011;55412;51.350;17.056;2023-04-28T10:05:53;8.00;;;3.20;;
68432;SDS011;55412;51.350;17.056;2023-04-28T10:08:22;7.57;;;3.15;;
68432;SDS011;55412;51.350;17.056;2023-04-28T10:10:51;12.83;;;3.50;;
68432;SDS011;55412;51.350;17.056;2023-04-28T10:13:19;12.27;;;3.78;;
68432;SDS011;55412;51.350;17.056;2023-04-28T10:15:47;8.77;;;3.67;;
68432;SDS011;55412;51.350;17.056;2023-04-28T10:18:14;8.75;;;2.95;;
68432;SDS011;55412;51.350;17.056;2023-04-28T10:21:02;8.88;;;3.10;;
68432;SDS011;55412;51.350;17.056;2023-04-28T10:26:12;11.18;;;3.53;;
68432;SDS011;55412;51.350;17.056;2023-04-28T10:28:47;9.82;;;3.40;;
68432;SDS011;55412;51.350;17.056;2023-04-28T10:31:18;6.63;;;2.85;;
68432;SDS011;55412;51.350;17.056;2023-04-28T10:33:47;7.15;;;3.55;;
68432;SDS011;55412;51.350;17.056;2023-04-28T10:39:16;10.10;;;3.08;;
68432;SDS011;55412;51.350;17.056;2023-04-28T10:41:44;8.25;;;3.72;;
68432;SDS011;55412;51.350;17.056;2023-04-28T10:50:02;7.43;;;3.07;;
68432;SDS011;55412;51.350;17.056;2023-04-28T11:00:45;8.38;;;3.75;;
68432;SDS011;55412;51.350;17.056;2023-04-28T11:09:01;12.20;;;4.10;;
68432;SDS011;55412;51.350;17.056;2023-04-28T11:14:30;6.65;;;2.50;;
68432;SDS011;55412;51.350;17.056;2023-04-28T11:17:03;8.43;;;2.43;;
68432;SDS011;55412;51.350;17.056;2023-04-28T11:19:31;8.98;;;2.72;;
68432;SDS011;55412;51.350;17.056;2023-04-28T11:22:12;11.85;;;3.28;;
68432;SDS011;55412;51.350;17.056;2023-04-28T11:24:58;9.30;;;3.58;;
68432;SDS011;55412;51.350;17.056;2023-04-28T11:27:27;7.82;;;2.67;;
68432;SDS011;55412;51.350;17.056;2023-04-28T11:29:55;8.17;;;2.50;;
68432;SDS011;55412;51.350;17.056;2023-04-28T11:32:28;10.50;;;2.78;;
68432;SDS011;55412;51.350;17.056;2023-04-28T11:34:56;6.45;;;3.38;;
68432;SDS011;55412;51.350;17.056;2023-04-28T11:37:22;10.10;;;5.47;;
68432;SDS011;55412;51.350;17.056;2023-04-28T11:39:48;7.28;;;2.75;;
68432;SDS011;55412;51.350;17.056;2023-04-28T11:42:15;10.17;;;3.53;;
68432;SDS011;55412;51.350;17.056;2023-04-28T11:44:41;11.57;;;3.63;;
68432;SDS011;55412;51.350;17.056;2023-04-28T11:47:27;9.73;;;3.63;;
68432;SDS011;55412;51.350;17.056;2023-04-28T11:49:55;5.35;;;3.38;;
68432;SDS011;55412;51.350;17.056;2023-04-28T11:52:22;8.43;;;3.08;;
68432;SDS011;55412;51.350;17.056;2023-04-28T11:54:54;8.93;;;2.67;;
68432;SDS011;55412;51.350;17.056;2023-04-28T11:57:23;8.82;;;2.45;;
68432;SDS011;55412;51.350;17.056;2023-04-28T11:59:49;9.73;;;2.95;;
68432;SDS011;55412;51.350;17.056;2023-04-28T12:02:18;8.48;;;3.20;;
68432;SDS011;55412;51.350;17.056;2023-04-28T12:04:52;7.95;;;3.78;;
68432;SDS011;55412;51.350;17.056;2023-04-28T12:07:19;6.57;;;3.13;;
68432;SDS011;55412;51.350;17.056;2023-04-28T12:10:08;9.82;;;3.15;;
68432;SDS011;55412;51.350;17.056;2023-04-28T12:12:36;7.05;;;3.13;;
68432;SDS011;55412;51.350;17.056;2023-04-28T12:15:03;9.30;;;3.35;;
68432;SDS011;55412;51.350;17.056;2023-04-28T12:17:33;8.32;;;3.38;;
68432;SDS011;55412;51.350;17.056;2023-04-28T12:20:04;7.97;;;3.40;;
68432;SDS011;55412;51.350;17.056;2023-04-28T12:22:45;9.93;;;3.53;;
68432;SDS011;55412;51.350;17.056;2023-04-28T12:25:16;9.52;;;3.13;;
68432;SDS011;55412;51.350;17.056;2023-04-28T12:27:59;8.05;;;3.65;;
68432;SDS011;55412;51.350;17.056;2023-04-28T12:30:35;7.80;;;3.20;;
68432;SDS011;55412;51.350;17.056;2023-04-28T12:33:21;6.87;;;2.27;;
68432;SDS011;55412;51.350;17.056;2023-04-28T12:35:49;7.15;;;2.90;;
68432;SDS011;55412;51.350;17.056;2023-04-28T12:38:15;5.55;;;2.35;;
68432;SDS011;55412;51.350;17.056;2023-04-28T12:40:42;8.32;;;3.13;;
68432;SDS011;55412;51.350;17.056;2023-04-28T12:43:08;8.82;;;2.72;;
68432;SDS011;55412;51.350;17.056;2023-04-28T12:45:33;9.60;;;3.03;;
68432;SDS011;55412;51.350;17.056;2023-04-28T12:48:00;8.20;;;2.45;;
68432;SDS011;55412;51.350;17.056;2023-04-28T12:50:26;7.28;;;2.63;;
68432;SDS011;55412;51.350;17.056;2023-04-28T12:52:56;6.75;;;2.38;;
68432;SDS011;55412;51.350;17.056;2023-04-28T12:55:22;9.17;;;2.77;;
68432;SDS011;55412;51.350;17.056;2023-04-28T12:57:48;7.90;;;2.45;;
68432;SDS011;55412;51.350;17.056;2023-04-28T13:00:15;8.60;;;2.45;;
68432;SDS011;55412;51.350;17.056;2023-04-28T13:02:45;6.65;;;2.63;;
68432;SDS011;55412;51.350;17.056;2023-04-28T13:05:11;6.15;;;2.80;;
68432;SDS011;55412;51.350;17.056;2023-04-28T13:07:38;6.17;;;2.37;;
68432;SDS011;55412;51.350;17.056;2023-04-28T13:10:05;6.50;;;2.20;;
68432;SDS011;55412;51.350;17.056;2023-04-28T13:12:32;8.50;;;2.10;;
68432;SDS011;55412;51.350;17.056;2023-04-28T13:15:02;7.07;;;1.80;;
68432;SDS011;55412;51.350;17.056;2023-04-28T13:17:28;8.00;;;2.15;;
68432;SDS011;55412;51.350;17.056;2023-04-28T13:19:55;7.30;;;2.20;;
68432;SDS011;55412;51.350;17.056;2023-04-28T13:22:21;6.07;;;2.17;;
68432;SDS011;55412;51.350;17.056;2023-04-28T13:24:47;6.68;;;2.72;;
68432;SDS011;55412;51.350;17.056;2023-04-28T13:27:13;6.32;;;1.65;;
68432;SDS011;55412;51.350;17.056;2023-04-28T13:29:39;6.30;;;2.28;;
68432;SDS011;55412;51.350;17.056;2023-04-28T13:32:05;5.30;;;2.10;;
68432;SDS011;55412;51.350;17.056;2023-04-28T13:34:31;7.10;;;1.80;;
68432;SDS011;55412;51.350;17.056;2023-04-28T13:36:57;7.68;;;2.10;;
68432;SDS011;55412;51.350;17.056;2023-04-28T13:39:23;6.07;;;2.00;;
68432;SDS011;55412;51.350;17.056;2023-04-28T13:41:49;5.10;;;1.88;;
68432;SDS011;55412;51.350;17.056;2023-04-28T13:44:15;6.70;;;2.23;;
68432;SDS011;55412;51.350;17.056;2023-04-28T13:46:41;7.00;;;2.10;;
68432;SDS011;55412;51.350;17.056;2023-04-28T13:49:11;7.93;;;2.38;;
68432;SDS011;55412;51.350;17.056;2023-04-28T13:51:37;7.47;;;2.85;;
68432;SDS011;55412;51.350;17.056;2023-04-28T13:54:03;8.95;;;2.42;;
68432;SDS011;55412;51.350;17.056;2023-04-28T13:56:33;6.07;;;1.87;;
68432;SDS011;55412;51.350;17.056;2023-04-28T13:59:00;8.82;;;2.45;;
68432;SDS011;55412;51.350;17.056;2023-04-28T14:01:27;7.40;;;2.63;;
68432;SDS011;55412;51.350;17.056;2023-04-28T14:03:53;7.20;;;2.20;;
68432;SDS011;55412;51.350;17.056;2023-04-28T14:06:20;7.43;;;2.28;;
68432;SDS011;55412;51.350;17.056;2023-04-28T14:08:46;4.40;;;1.83;;
68432;SDS011;55412;51.350;17.056;2023-04-28T14:11:12;7.82;;;1.83;;
68432;SDS011;55412;51.350;17.056;2023-04-28T14:13:38;6.97;;;2.08;;
68432;SDS011;55412;51.350;17.056;2023-04-28T14:16:04;7.78;;;1.80;;
68432;SDS011;55412;51.350;17.056;2023-04-28T14:18:31;6.85;;;1.98;;
68432;SDS011;55412;51.350;17.056;2023-04-28T14:20:58;8.97;;;2.27;;
68432;SDS011;55412;51.350;17.056;2023-04-28T14:23:24;6.90;;;1.90;;
68432;SDS011;55412;51.350;17.056;2023-04-28T14:25:53;5.75;;;1.88;;
68432;SDS011;55412;51.350;17.056;2023-04-28T14:28:22;5.80;;;1.92;;
68432;SDS011;55412;51.350;17.056;2023-04-28T14:30:48;6.57;;;1.38;;
68432;SDS011;55412;51.350;17.056;2023-04-28T14:33:15;5.70;;;1.50;;
68432;SDS011;55412;51.350;17.056;2023-04-28T14:35:41;4.30;;;1.27;;
68432;SDS011;55412;51.350;17.056;2023-04-28T14:38:07;6.45;;;1.70;;
68432;SDS011;55412;51.350;17.056;2023-04-28T14:40:33;5.25;;;1.58;;
68432;SDS011;55412;51.350;17.056;2023-04-28T14:42:59;5.15;;;1.55;;
68432;SDS011;55412;51.350;17.056;2023-04-28T14:45:25;4.77;;;1.60;;
68432;SDS011;55412;51.350;17.056;2023-04-28T14:47:51;6.25;;;1.60;;
68432;SDS011;55412;51.350;17.056;2023-04-28T14:50:17;5.10;;;1.55;;
68432;SDS011;55412;51.350;17.056;2023-04-28T14:52:44;6.10;;;1.30;;
68432;SDS011;55412;51.350;17.056;2023-04-28T14:55:10;7.63;;;1.35;;
68432;SDS011;55412;51.350;17.056;2023-04-28T14:57:36;3.63;;;1.03;;